Decoded Metar for KDHN (DOTHAN in AL, USA) (IATA:DHN) | Meteo·Mobile Aviation Weather
aviador You're here:

KDHN Decoded Metar

DOTHAN in AL, USA
Report Time2018-10-22 12:53:00
UTC Time2018-10-22 13:52:36
Flight Rules vfr VFR
Wind060° at 05 kt
W.Decomp.*RWY 36: 2.3 kt HW 4.5 kt RCW
RWY 14: 1.1 kt HW 4.9 kt LCW
W.Rank060° ranks 9
Current wind is below 060° avg. (6.1)
Visibility9999 m
Phenomena:N/A
Clouds:N/A
Expected CloudBase > 2,000 ft AGL from Temp-Dew spread
CeilingNone
Temp10°C (ISA -4)
Dew Point05°C (71% RH)
AAT7.1°C
QNH1026 hPa
Density Alt-456 ft
Elevation371 ft
Report Wrong Elevation
Raw Report
METAR KDHN 221253Z 06005KT 10SM CLR 10/05 A3029 RMK AO2 SLP255 T01000050=

Extra information for KDHN:More info

Metar Taf Metar & Taf Last 4 Metars F.Rules Stats Wind Profile Meteogram Temp Stats Airport Information Weather charts Add Link Nearby VenuesMetar ALERT Operation Metar Decoded Social comments

AIRNAV info for KDHN